Time;durP1;ratioP1;P1;durP2;ratioP2;P2;SDS_P1;SDS_P2;PMS_P1;PMS_P2;Temp;Humidity;BMP_temperature;BMP_pressure;BME280_temperature;BME280_humidity;BME280_pressure;Samples;Min_cycle;Max_cycle;Signal;HPM_P1;HPM_P2
2022/10/03 00:01:53;;;;;;;5.10;2.35;;;;;;;19.04;37.93;99594.38;5112020;28;20019;-43
2022/10/03 00:04:50;;;;;;;3.58;2.20;;;;;;;19.18;37.48;99593.88;5111715;28;20026;-42
2022/10/03 00:07:37;;;;;;;3.53;2.38;;;;;;;19.35;37.09;99591.78;5111877;28;20057;-42
2022/10/03 00:10:08;;;;;;;3.22;2.10;;;;;;;19.18;37.49;99583.09;5111881;28;20464;-42
2022/10/03 00:13:02;;;;;;;3.67;1.85;;;;;;;19.16;37.80;99582.53;5112052;28;20133;-42
2022/10/03 00:15:38;;;;;;;3.13;1.90;;;;;;;19.12;37.11;99574.97;5112496;28;20028;-42
2022/10/03 00:18:12;;;;;;;3.30;1.70;;;;;;;19.07;37.38;99569.56;5111131;28;20024;-42
2022/10/03 00:21:00;;;;;;;2.28;1.70;;;;;;;19.14;37.18;99572.81;5111976;28;20047;-43
2022/10/03 00:23:44;;;;;;;2.30;1.60;;;;;;;19.07;37.30;99572.25;5111998;28;20044;-43
2022/10/03 00:26:31;;;;;;;1.80;1.60;;;;;;;19.20;37.15;99578.25;5112033;28;20043;-42
2022/10/03 00:29:20;;;;;;;2.10;1.70;;;;;;;19.04;37.41;99574.66;5112142;28;20031;-41
2022/10/03 00:31:57;;;;;;;2.53;1.90;;;;;;;19.02;37.55;99568.72;5112326;28;20095;-42
2022/10/03 00:34:46;;;;;;;5.68;2.20;;;;;;;19.14;37.36;99567.44;5111883;28;20494;-42
2022/10/03 00:37:20;;;;;;;2.85;2.03;;;;;;;18.95;37.65;99569.78;5111911;28;20119;-41
2022/10/03 00:39:46;;;;;;;3.60;2.30;;;;;;;18.87;37.83;99564.09;5110371;28;20038;-41
2022/10/03 00:42:34;;;;;;;3.72;2.25;;;;;;;18.59;38.32;99559.88;5111524;28;20431;-42
2022/10/03 00:45:34;;;;;;;2.90;2.20;;;;;;;18.80;38.34;99560.78;5111124;28;20020;-42
2022/10/03 00:48:02;;;;;;;3.40;2.20;;;;;;;18.80;38.25;99563.47;5111617;27;20023;-43
2022/10/03 00:50:40;;;;;;;9.15;2.33;;;;;;;18.71;38.20;99553.16;5111530;28;20042;-41
2022/10/03 00:53:34;;;;;;;5.25;2.17;;;;;;;18.61;38.58;99553.13;5110424;28;20039;-44
2022/10/03 00:56:18;;;;;;;3.55;2.10;;;;;;;19.13;37.90;99549.63;5110810;28;20074;-42
2022/10/03 00:58:49;;;;;;;2.33;1.88;;;;;;;19.16;37.54;99542.91;5111140;28;20031;-47
2022/10/03 01:01:26;;;;;;;2.10;1.70;;;;;;;19.36;37.48;99541.31;5112128;28;20395;-45
2022/10/03 01:04:13;;;;;;;3.15;1.67;;;;;;;19.48;37.04;99536.50;5112005;28;20027;-45
2022/10/03 01:06:51;;;;;;;2.65;1.73;;;;;;;19.46;36.80;99534.06;5111787;28;20372;-45
2022/10/03 01:09:31;;;;;;;2.42;1.80;;;;;;;19.35;37.59;99532.44;5112021;28;20032;-42
2022/10/03 01:12:16;;;;;;;3.65;1.60;;;;;;;19.52;37.09;99522.19;5111708;28;20485;-41
2022/10/03 01:14:53;;;;;;;2.67;1.60;;;;;;;19.16;37.61;99517.81;5111898;28;20080;-41
2022/10/03 01:17:48;;;;;;;2.85;1.80;;;;;;;19.22;37.69;99520.25;5111451;28;20072;-41
2022/10/03 01:20:37;;;;;;;2.38;1.90;;;;;;;19.41;37.48;99515.16;5111513;28;20048;-41
2022/10/03 01:23:24;;;;;;;3.55;1.67;;;;;;;19.43;37.75;99517.59;5112131;28;20024;-42
2022/10/03 01:26:21;;;;;;;3.03;1.83;;;;;;;19.36;37.80;99514.34;5111680;28;20020;-40
2022/10/03 01:31:52;;;;;;;2.40;1.58;;;;;;;19.33;37.78;99524.59;5111630;28;20100;-42
2022/10/03 01:34:36;;;;;;;2.70;1.70;;;;;;;19.47;37.54;99513.28;5111372;28;20077;-42
2022/10/03 01:37:22;;;;;;;3.38;1.95;;;;;;;19.54;37.45;99517.34;5111625;28;20055;-43
2022/10/03 01:40:17;;;;;;;3.05;1.80;;;;;;;19.56;37.42;99522.47;5111105;28;20499;-43
2022/10/03 01:42:51;;;;;;;2.58;1.55;;;;;;;19.59;37.72;99513.03;5111401;28;20012;-42
2022/10/03 01:45:46;;;;;;;1.60;1.33;;;;;;;19.62;37.84;99502.50;5111452;28;20023;-43
2022/10/03 01:48:38;;;;;;;3.20;1.70;;;;;;;19.58;43.62;99516.81;5110745;28;20027;-43
2022/10/03 01:51:28;;;;;;;1.98;1.60;;;;;;;19.88;45.90;99518.75;5111558;28;20027;-42
2022/10/03 01:54:13;;;;;;;3.25;1.55;;;;;;;20.19;44.31;99508.72;5111030;28;20053;-43
2022/10/03 01:56:52;;;;;;;2.53;1.42;;;;;;;20.48;41.39;99506.22;5111136;28;20344;-44
2022/10/03 01:59:49;;;;;;;6.35;1.70;;;;;;;20.70;42.57;99514.03;5110932;28;20456;-43
2022/10/03 02:02:20;;;;;;;1.85;1.50;;;;;;;20.90;42.00;99504.22;5111210;28;20101;-44
2022/10/03 02:04:48;;;;;;;2.03;1.63;;;;;;;21.07;40.79;99510.06;5111142;28;20039;-45
2022/10/03 02:07:29;;;;;;;2.78;1.80;;;;;;;21.15;39.44;99510.56;5111160;28;20031;-43
2022/10/03 02:10:36;;;;;;;2.95;2.03;;;;;;;21.38;38.23;99507.22;5111455;28;20015;-43
2022/10/03 02:13:13;;;;;;;2.80;2.20;;;;;;;21.20;35.67;99514.06;5108890;28;20521;-43
2022/10/03 02:16:04;;;;;;;3.55;2.30;;;;;;;21.04;36.08;99510.63;5110620;28;20110;-44
2022/10/03 02:18:46;;;;;;;4.38;2.50;;;;;;;20.74;36.18;99508.06;5110705;28;20480;-43
2022/10/03 02:21:16;;;;;;;4.20;2.90;;;;;;;20.45;36.92;99509.47;5110602;28;20423;-43
2022/10/03 02:23:45;;;;;;;6.50;3.25;;;;;;;20.18;37.28;99512.53;5111148;28;20075;-44
2022/10/03 02:26:35;;;;;;;6.60;3.38;;;;;;;19.96;38.19;99514.69;5110802;28;20119;-43
2022/10/03 02:29:12;;;;;;;6.88;3.97;;;;;;;19.85;38.06;99516.59;5110930;28;20517;-43
2022/10/03 02:31:55;;;;;;;6.82;4.32;;;;;;;19.65;38.00;99511.97;5110883;28;20116;-42
2022/10/03 02:34:59;;;;;;;9.48;5.05;;;;;;;19.46;39.06;99512.47;5110748;28;20398;-44
2022/10/03 02:37:36;;;;;;;6.70;4.75;;;;;;;19.28;39.02;99513.78;5110779;28;20520;-43
2022/10/03 02:40:10;;;;;;;7.35;4.80;;;;;;;19.18;39.55;99512.97;5110413;28;20027;-43
2022/10/03 02:42:56;;;;;;;6.45;4.55;;;;;;;19.23;39.40;99497.59;5113452;28;20370;-43
2022/10/03 02:45:27;;;;;;;6.72;4.88;;;;;;;19.21;39.12;99497.06;5114631;27;20035;-43
2022/10/03 02:48:41;;;;;;;7.53;4.68;;;;;;;19.18;39.52;99497.59;5113385;28;20023;-43
2022/10/03 02:51:53;;;;;;;7.32;4.00;;;;;;;18.63;39.94;99498.97;5114333;28;20023;-43
2022/10/03 02:54:36;;;;;;;6.22;3.80;;;;;;;18.11;40.80;99487.13;5087741;28;20043;-42
2022/10/03 02:57:01;;;;;;;5.30;3.63;;;;;;;18.37;40.67;99496.13;5114480;28;20114;-43
2022/10/03 02:59:58;;;;;;;5.22;3.50;;;;;;;18.19;40.72;99496.59;5113298;28;20099;-43
2022/10/03 03:02:46;;;;;;;7.25;4.30;;;;;;;18.44;40.28;99487.84;5114017;28;20019;-43
2022/10/03 03:05:26;;;;;;;5.68;4.25;;;;;;;18.50;40.39;99478.69;5113654;28;20375;-43
2022/10/03 03:08:08;;;;;;;;;;;;;;;18.31;40.74;99476.44;5114708;28;20114;-43
2022/10/03 03:10:52;;;;;;;;;;;;;;;18.20;40.88;99482.03;5112907;28;20313;-42
2022/10/03 03:13:24;;;;;;;6.60;3.53;;;;;;;18.01;40.81;99476.25;5112857;28;20371;-42
2022/10/03 03:15:53;;;;;;;6.50;3.83;;;;;;;17.70;41.60;99470.63;5112480;28;20500;-42
2022/10/03 03:19:03;;;;;;;7.18;4.05;;;;;;;17.62;41.65;99476.47;5113727;28;20030;-44
2022/10/03 03:21:42;;;;;;;7.43;3.85;;;;;;;17.46;42.06;99464.75;5113429;28;20051;-42
2022/10/03 03:24:48;;;;;;;9.40;4.47;;;;;;;17.49;41.99;99459.69;5113259;28;20491;-42
2022/10/03 03:27:25;;;;;;;9.65;7.10;;;;;;;17.39;41.97;99454.22;5113467;28;20027;-42
2022/10/03 03:30:04;;;;;;;14.43;9.27;;;;;;;17.45;42.13;99460.47;5113388;27;20402;-42
2022/10/03 03:32:41;;;;;;;17.45;10.57;;;;;;;17.61;42.05;99448.78;5113061;27;20035;-42
2022/10/03 03:35:35;;;;;;;19.05;12.80;;;;;;;17.66;41.58;99448.78;5113142;28;20076;-43
2022/10/03 03:38:18;;;;;;;22.63;12.98;;;;;;;17.50;42.11;99444.38;5113281;27;20024;-42
2022/10/03 03:41:08;;;;;;;20.45;11.88;;;;;;;17.35;42.47;99447.72;5112913;28;20398;-42
2022/10/03 03:43:58;;;;;;;15.18;10.60;;;;;;;17.44;42.38;99438.13;5113117;28;20012;-42
2022/10/03 03:46:54;;;;;;;14.73;10.27;;;;;;;17.71;42.21;99439.97;5112952;28;20235;-41
2022/10/03 03:49:48;;;;;;;14.93;9.38;;;;;;;17.88;41.49;99431.78;5112980;28;20024;-42
2022/10/03 03:52:32;;;;;;;20.80;10.68;;;;;;;17.54;41.36;99429.34;5112491;28;20479;-43
2022/10/03 03:54:57;;;;;;;19.33;13.50;;;;;;;17.70;41.30;99425.69;5112471;27;20077;-42
2022/10/03 03:57:41;;;;;;;21.60;12.23;;;;;;;17.72;41.50;99430.81;5112099;28;20027;-42
2022/10/03 04:00:20;;;;;;;23.05;12.18;;;;;;;17.59;41.69;99430.19;5111831;28;20122;-42
2022/10/03 04:03:12;;;;;;;17.38;9.70;;;;;;;17.27;42.10;99426.66;5112064;28;20109;-41
2022/10/03 04:05:50;;;;;;;16.73;9.73;;;;;;;17.30;42.27;99421.59;5111740;28;20032;-41
2022/10/03 04:08:36;;;;;;;18.15;12.27;;;;;;;17.43;41.59;99428.44;5111760;28;20042;-42
2022/10/03 04:11:33;;;;;;;10.35;5.90;;;;;;;18.23;52.04;99439.25;5108715;28;20379;-43
2022/10/03 04:14:20;;;;;;;35.97;18.33;;;;;;;18.19;41.90;99430.06;5092037;28;20020;-41
2022/10/03 04:20:39;;;;;;;57.97;32.30;;;;;;;17.79;41.80;99407.97;5092324;28;20055;-41
2022/10/03 04:23:11;;;;;;;59.33;32.58;;;;;;;17.95;41.44;99411.63;5099624;28;20016;-41
2022/10/03 04:25:42;;;;;;;55.78;30.67;;;;;;;18.14;41.20;99417.41;5112178;28;20019;-41
2022/10/03 04:28:40;;;;;;;52.03;29.88;;;;;;;18.40;41.00;99406.72;5111899;28;20514;-41
2022/10/03 04:31:05;;;;;;;46.47;24.70;;;;;;;18.47;41.30;99403.81;5111358;28;20047;-41
2022/10/03 04:33:43;;;;;;;29.60;14.90;;;;;;;18.33;40.13;99400.78;5112051;28;20040;-41
2022/10/03 04:36:30;;;;;;;25.65;14.02;;;;;;;18.43;41.38;99403.53;5097428;28;20032;-42
2022/10/03 04:39:00;;;;;;;20.55;11.13;;;;;;;18.39;40.19;99396.22;5091851;28;20059;-41
2022/10/03 04:41:41;;;;;;;30.35;17.92;;;;;;;18.46;41.27;99392.19;5091662;28;20032;-42
2022/10/03 04:44:30;;;;;;;;;;;;;;;18.83;39.57;99409.31;5092181;28;20028;-41
2022/10/03 04:46:59;;;;;;;30.88;14.93;;;;;;;18.69;40.33;99414.38;5089615;28;20202;-41
2022/10/03 04:49:27;;;;;;;;;;;;;;;18.75;39.46;99416.00;5091314;28;20119;-42
2022/10/03 04:52:05;;;;;;;15.93;7.53;;;;;;;18.24;40.00;99430.09;5089943;28;19916;-42
2022/10/03 04:54:43;;;;;;;11.32;7.35;;;;;;;18.11;40.95;99422.50;5089442;28;20043;-42
2022/10/03 04:57:41;;;;;;;8.27;4.50;;;;;;;18.10;40.64;99424.34;5088689;28;20024;-41
2022/10/03 05:00:44;;;;;;;4.45;3.38;;;;;;;17.89;40.92;99407.25;5083111;28;20048;-41
2022/10/03 05:03:37;;;;;;;3.35;2.45;;;;;;;17.95;41.21;99417.03;5025973;28;20029;-43
2022/10/03 05:06:42;;;;;;;7.07;3.00;;;;;;;18.00;41.47;99418.91;5089323;28;20040;-40
2022/10/03 05:09:22;;;;;;;26.85;19.13;;;;;;;17.81;41.27;99415.81;5067464;28;20036;-44
2022/10/03 05:12:06;;;;;;;;;;;;;;;17.95;40.80;99414.31;5091197;28;20472;-42
2022/10/03 05:14:51;;;;;;;34.53;22.63;;;;;;;17.92;41.58;99414.84;5090546;28;19928;-42
2022/10/03 05:17:36;;;;;;;18.08;10.40;;;;;;;17.87;41.84;99409.41;5090560;28;20027;-42
2022/10/03 05:20:38;;;;;;;7.07;3.08;;;;;;;17.93;41.29;99418.31;5090188;28;20047;-42
2022/10/03 05:23:45;;;;;;;5.68;2.47;;;;;;;17.87;41.69;99424.75;5090343;28;20024;-41
2022/10/03 05:26:16;;;;;;;5.13;2.47;;;;;;;17.77;40.95;99422.78;5027734;28;20109;-43
2022/10/03 05:29:09;;;;;;;9.68;2.50;;;;;;;17.65;41.42;99419.44;5082076;28;20042;-42
2022/10/03 05:31:43;;;;;;;5.10;2.97;;;;;;;17.24;42.63;99411.06;5089752;28;20030;-42
2022/10/03 05:34:47;;;;;;;8.25;3.30;;;;;;;16.71;43.58;99416.13;5089984;28;20110;-43
2022/10/03 05:37:13;;;;;;;6.97;2.80;;;;;;;17.02;42.93;99420.00;5090473;28;20028;-42
2022/10/03 05:40:00;;;;;;;6.97;2.78;;;;;;;17.47;43.22;99420.66;5090207;28;20038;-42
2022/10/03 05:42:34;;;;;;;4.93;2.38;;;;;;;17.91;41.94;99429.34;5090325;28;20089;-42
2022/10/03 05:44:59;;;;;;;6.38;2.60;;;;;;;18.16;41.22;99428.72;5089898;28;20034;-42
2022/10/03 05:47:47;;;;;;;5.97;2.40;;;;;;;18.47;41.05;99441.53;5089776;28;20430;-42
2022/10/03 05:50:40;;;;;;;7.05;2.60;;;;;;;18.79;40.19;99438.69;5089487;28;20036;-41
2022/10/03 05:53:43;;;;;;;6.97;2.10;;;;;;;18.82;40.11;99434.66;5089430;28;20515;-41
2022/10/03 05:56:39;;;;;;;2.92;2.00;;;;;;;18.92;40.14;99429.28;5095745;28;20032;-43
2022/10/03 05:59:07;;;;;;;3.85;2.10;;;;;;;18.15;41.49;99426.28;5108788;28;20016;-42
2022/10/03 06:01:35;;;;;;;3.40;2.15;;;;;;;18.16;41.22;99420.63;5109514;28;20028;-43
2022/10/03 06:04:11;;;;;;;4.65;2.47;;;;;;;18.81;40.77;99419.56;5109722;28;20043;-43
2022/10/03 06:06:55;;;;;;;5.88;2.20;;;;;;;18.66;41.37;99423.81;5099425;28;20044;-42
2022/10/03 06:09:48;;;;;;;4.75;2.20;;;;;;;19.09;40.16;99412.88;5109750;28;20027;-43
2022/10/03 06:12:24;;;;;;;4.22;2.30;;;;;;;19.53;39.19;99417.75;5109756;28;20674;-41
2022/10/03 06:15:13;;;;;;;6.95;2.60;;;;;;;19.72;39.93;99418.88;5109920;28;20059;-34
2022/10/03 06:17:38;;;;;;;3.85;2.25;;;;;;;20.00;39.02;99426.66;5113126;28;20034;-35
2022/10/03 06:20:13;;;;;;;5.82;3.65;;;;;;;20.30;43.15;99418.47;5114112;28;20047;-36
2022/10/03 06:23:01;;;;;;;5.00;2.70;;;;;;;20.70;38.80;99414.00;5113640;28;20099;-36
2022/10/03 06:25:49;;;;;;;13.85;8.75;;;;;;;20.72;40.48;99412.91;5113330;28;20028;-36
2022/10/03 06:28:29;;;;;;;5.85;3.40;;;;;;;20.84;37.91;99421.50;5112896;28;20101;-36
2022/10/03 06:31:16;;;;;;;6.57;3.95;;;;;;;20.50;39.03;99419.47;5112962;28;20020;-36
2022/10/03 06:34:16;;;;;;;7.32;3.15;;;;;;;21.01;37.60;99415.72;5113152;28;20106;-36
2022/10/03 06:37:00;;;;;;;7.05;2.50;;;;;;;21.50;36.91;99417.56;5113745;28;20035;-36
2022/10/03 06:39:56;;;;;;;8.13;3.40;;;;;;;21.66;36.69;99424.44;5113677;28;20039;-34
2022/10/03 06:42:42;;;;;;;5.65;3.67;;;;;;;21.36;35.82;99421.94;5114209;28;20051;-36
2022/10/03 06:45:08;;;;;;;6.88;4.38;;;;;;;21.56;36.28;99415.63;5114039;28;20019;-35
2022/10/03 06:48:04;;;;;;;4.88;2.90;;;;;;;21.55;35.72;99406.69;5113981;28;20032;-36
2022/10/03 06:51:01;;;;;;;6.40;3.30;;;;;;;21.84;36.08;99403.97;5113971;28;20023;-36
2022/10/03 06:53:29;;;;;;;4.88;2.70;;;;;;;22.78;34.91;99407.22;5107444;28;20485;-36
2022/10/03 06:56:19;;;;;;;10.07;2.45;;;;;;;23.56;33.10;99404.97;5112053;28;20016;-36
2022/10/03 06:58:53;;;;;;;6.60;3.13;;;;;;;24.07;32.65;99398.63;5112163;28;20115;-37
2022/10/03 07:01:40;;;;;;;8.07;3.25;;;;;;;24.75;31.36;99404.31;5111833;28;20027;-36
2022/10/03 07:04:26;;;;;;;6.45;3.00;;;;;;;25.58;30.14;99403.25;5111687;28;20032;-36
2022/10/03 07:07:02;;;;;;;3.95;2.78;;;;;;;26.19;29.15;99403.53;5111940;28;20027;-37
2022/10/03 07:09:43;;;;;;;6.55;2.78;;;;;;;26.55;28.57;99397.06;5112033;28;20108;-38
2022/10/03 07:12:42;;;;;;;4.40;2.63;;;;;;;27.47;27.53;99403.22;5112482;27;20086;-36
2022/10/03 07:15:27;;;;;;;5.47;2.40;;;;;;;28.05;26.38;99411.09;5110957;28;20042;-37
2022/10/03 07:18:37;;;;;;;7.30;3.30;;;;;;;28.40;25.99;99400.78;5112184;28;20428;-37
2022/10/03 07:21:24;;;;;;;8.27;2.40;;;;;;;28.41;25.49;99394.19;5111891;28;20129;-37
2022/10/03 07:24:10;;;;;;;4.70;2.45;;;;;;;28.76;25.02;99391.22;5112221;28;20027;-36
2022/10/03 07:26:54;;;;;;;4.00;2.30;;;;;;;28.90;25.04;99390.16;5111935;28;20031;-36
2022/10/03 07:29:41;;;;;;;5.75;3.10;;;;;;;29.22;24.03;99380.41;5112825;28;20473;-36
2022/10/03 07:32:13;;;;;;;4.65;2.78;;;;;;;29.20;24.41;99382.69;5112931;28;20505;-36
2022/10/03 07:34:38;;;;;;;6.10;2.72;;;;;;;29.55;24.25;99391.38;5112791;28;20031;-36
2022/10/03 07:40:41;;;;;;;5.80;3.40;;;;;;;28.67;25.54;99385.00;5113000;28;20058;-36
2022/10/03 07:43:22;;;;;;;4.97;3.20;;;;;;;29.19;25.08;99381.09;5112685;28;20039;-37
2022/10/03 07:46:06;;;;;;;6.50;3.30;;;;;;;29.08;24.77;99380.66;5112805;28;20035;-36
2022/10/03 07:49:00;;;;;;;7.20;4.05;;;;;;;29.13;24.71;99375.03;5112399;28;20027;-36
2022/10/03 07:51:39;;;;;;;5.07;3.00;;;;;;;29.35;24.92;99386.72;5101134;28;20538;-36
2022/10/03 07:54:23;;;;;;;7.07;2.70;;;;;;;29.26;24.93;99383.28;5112330;28;20031;-36
2022/10/03 07:57:02;;;;;;;5.60;2.83;;;;;;;29.43;24.55;99386.66;5112100;28;20028;-37
2022/10/03 07:59:37;;;;;;;3.97;2.42;;;;;;;29.37;24.30;99396.19;5112300;28;20122;-36
2022/10/03 08:02:27;;;;;;;6.18;2.63;;;;;;;29.27;24.85;99395.84;5112086;28;20112;-37
2022/10/03 08:05:04;;;;;;;7.25;2.58;;;;;;;28.97;24.84;99393.97;5111812;28;20050;-36
2022/10/03 08:07:57;;;;;;;4.55;2.72;;;;;;;28.88;25.15;99392.44;5111739;28;20039;-36
2022/10/03 08:11:00;;;;;;;5.47;2.88;;;;;;;28.29;25.65;99385.88;5111955;28;20020;-36
2022/10/03 08:14:03;;;;;;;5.20;2.80;;;;;;;28.02;26.22;99393.41;5111912;28;20059;-36
2022/10/03 08:16:35;;;;;;;3.97;2.67;;;;;;;27.65;26.31;99394.97;5111847;28;20059;-37
2022/10/03 08:19:31;;;;;;;6.18;2.72;;;;;;;27.16;27.05;99402.59;5111829;28;20095;-37
2022/10/03 08:22:12;;;;;;;5.45;2.80;;;;;;;27.25;27.12;99406.94;5112004;28;20051;-37
2022/10/03 08:25:09;;;;;;;7.78;2.80;;;;;;;27.30;27.11;99405.97;5111978;28;20069;-37
2022/10/03 08:27:52;;;;;;;6.88;2.58;;;;;;;27.05;27.85;99400.16;5111562;27;20030;-37
2022/10/03 08:30:20;;;;;;;6.18;2.63;;;;;;;26.89;27.36;99391.66;5111330;28;20670;-38
2022/10/03 08:32:56;;;;;;;4.28;2.40;;;;;;;26.48;28.11;99395.63;5111159;28;20040;-36
2022/10/03 08:35:37;;;;;;;8.80;2.75;;;;;;;26.44;28.12;99389.16;5110769;28;20107;-36
2022/10/03 08:38:21;;;;;;;4.45;2.50;;;;;;;25.45;29.00;99388.56;5111711;28;20380;-37
2022/10/03 08:41:23;;;;;;;4.60;2.60;;;;;;;26.04;28.55;99391.94;5110596;28;20068;-37
2022/10/03 08:44:17;;;;;;;5.85;2.50;;;;;;;26.42;27.99;99405.03;5111432;28;20394;-36
2022/10/03 08:47:19;;;;;;;8.65;2.60;;;;;;;26.32;28.18;99395.25;5111231;28;20026;-36
2022/10/03 08:49:57;;;;;;;6.47;2.50;;;;;;;26.08;28.60;99403.84;5111206;28;20023;-36
2022/10/03 08:52:55;;;;;;;8.15;2.70;;;;;;;26.02;28.70;99405.06;5111025;28;20107;-36
2022/10/03 08:55:54;;;;;;;5.28;2.30;;;;;;;25.52;29.42;99399.84;5110966;28;20122;-36
2022/10/03 08:58:32;;;;;;;5.07;2.88;;;;;;;25.88;29.01;99407.88;5110667;28;20032;-36
2022/10/03 09:01:19;;;;;;;7.60;2.28;;;;;;;26.27;29.72;99409.03;5111431;28;20437;-37
2022/10/03 09:04:13;;;;;;;8.52;2.95;;;;;;;26.47;29.83;99415.81;5109528;28;20023;-36
2022/10/03 09:06:54;;;;;;;5.97;2.78;;;;;;;26.56;29.88;99423.22;5110868;28;20026;-43
2022/10/03 09:09:53;;;;;;;8.55;2.78;;;;;;;26.61;29.98;99420.38;5110401;28;20152;-42
2022/10/03 09:12:55;;;;;;;6.60;2.90;;;;;;;26.72;29.98;99429.88;5109792;28;20041;-43
2022/10/03 09:15:48;;;;;;;8.05;2.88;;;;;;;26.78;30.28;99435.97;5110086;28;20051;-44
2022/10/03 09:18:20;;;;;;;8.85;3.00;;;;;;;26.68;30.28;99445.28;5110110;28;20042;-36
2022/10/03 09:20:52;;;;;;;4.15;2.05;;;;;;;26.25;29.77;99448.63;5110221;28;20491;-43
2022/10/03 09:23:44;;;;;;;5.85;1.92;;;;;;;26.00;30.02;99440.03;5110074;28;20043;-43
2022/10/03 09:26:43;;;;;;;5.00;1.98;;;;;;;25.19;31.41;99440.91;5106230;28;20039;-36
2022/10/03 09:29:29;;;;;;;4.05;2.00;;;;;;;25.50;30.99;99438.28;5110008;28;20391;-36
2022/10/03 09:31:57;;;;;;;5.47;2.00;;;;;;;25.04;32.29;99450.22;5110044;28;20019;-36
2022/10/03 09:34:50;;;;;;;4.82;2.20;;;;;;;24.70;32.81;99446.06;5109730;28;20520;-36
2022/10/03 09:38:12;;;;;;;4.57;2.08;;;;;;;24.72;33.62;99443.84;5109633;28;20102;-37
2022/10/03 09:41:01;;;;;;;5.68;2.35;;;;;;;24.82;33.84;99429.22;5027547;28;20034;-36
2022/10/03 09:43:48;;;;;;;9.15;2.67;;;;;;;25.22;33.52;99445.72;4999752;28;20108;-36
2022/10/03 09:46:13;;;;;;;5.60;2.83;;;;;;;24.69;34.49;99438.19;5101000;28;20067;-36
2022/10/03 09:48:49;;;;;;;6.15;2.72;;;;;;;24.70;33.70;99437.91;5109978;28;20028;-37
2022/10/03 09:51:41;;;;;;;4.38;2.33;;;;;;;24.62;33.85;99430.47;5109588;27;20039;-37
2022/10/03 09:54:06;;;;;;;4.75;2.55;;;;;;;24.11;35.31;99454.00;5107453;28;20425;-36
2022/10/03 09:57:01;;;;;;;5.93;2.00;;;;;;;23.09;37.98;99455.66;5107307;28;20023;-36
2022/10/03 09:59:30;;;;;;;5.80;1.80;;;;;;;22.50;39.73;99446.91;5109937;28;20046;-36
2022/10/03 10:02:14;;;;;;;4.50;1.58;;;;;;;22.23;40.42;99454.47;5110089;28;20016;-36
2022/10/03 10:04:53;;;;;;;6.68;1.75;;;;;;;22.54;40.22;99451.47;5109607;28;20096;-36
2022/10/03 10:07:30;;;;;;;3.83;1.73;;;;;;;22.57;40.38;99453.59;5110214;28;20023;-37
2022/10/03 10:10:05;;;;;;;12.43;1.80;;;;;;;22.43;40.68;99455.41;5109284;28;20027;-37
2022/10/03 10:12:39;;;;;;;3.75;1.77;;;;;;;22.20;41.07;99459.66;5109275;28;20084;-36
2022/10/03 10:15:16;;;;;;;8.45;2.80;;;;;;;22.31;41.11;99450.34;5109456;28;20020;-36
2022/10/03 10:17:45;;;;;;;22.55;3.75;;;;;;;22.04;41.21;99462.53;5107282;28;20019;-36
2022/10/03 10:20:29;;;;;;;3.92;1.50;;;;;;;21.51;42.46;99451.63;5109091;28;20143;-37
2022/10/03 10:22:57;;;;;;;9.95;1.70;;;;;;;21.61;42.04;99475.94;5106746;28;20024;-44
2022/10/03 10:25:47;;;;;;;6.63;2.00;;;;;;;21.67;41.84;99474.00;5108979;28;20024;-43
2022/10/03 10:28:36;;;;;;;7.53;1.77;;;;;;;21.77;41.92;99465.78;5108836;28;20039;-46
2022/10/03 10:31:04;;;;;;;4.05;1.80;;;;;;;21.48;42.69;99482.00;5107050;28;20038;-45
2022/10/03 10:34:07;;;;;;;2.90;1.73;;;;;;;21.45;42.66;99494.16;5109018;28;20028;-43
2022/10/03 10:36:48;;;;;;;7.53;1.73;;;;;;;21.80;41.65;99492.31;5108804;28;20028;-44
2022/10/03 10:39:32;;;;;;;3.63;1.55;;;;;;;21.48;42.65;99492.81;5109235;28;20043;-43
2022/10/03 10:42:00;;;;;;;6.10;1.48;;;;;;;21.48;42.83;99496.31;5109127;28;20391;-43
2022/10/03 10:44:41;;;;;;;3.22;1.55;;;;;;;21.64;42.26;99499.72;5109998;28;20027;-43
2022/10/03 10:47:32;;;;;;;2.47;1.60;;;;;;;21.28;43.13;99505.38;5109576;28;20102;-45
2022/10/03 10:50:37;;;;;;;2.17;1.42;;;;;;;21.14;43.63;99511.69;5069965;28;20057;-44
2022/10/03 10:53:09;;;;;;;4.53;1.75;;;;;;;21.26;43.40;99509.44;5108984;28;20092;-42
2022/10/03 10:55:49;;;;;;;4.03;1.45;;;;;;;20.94;43.59;99510.66;5108278;28;20034;-42
2022/10/03 10:58:39;;;;;;;5.18;1.42;;;;;;;20.34;45.46;99512.50;5107311;28;20027;-44
2022/10/03 11:01:42;;;;;;;3.13;1.73;;;;;;;20.65;46.57;99518.63;5105456;28;20114;-44
2022/10/03 11:04:25;;;;;;;6.25;1.80;;;;;;;20.46;50.83;99526.50;5109350;28;20039;-44
2022/10/03 11:07:15;;;;;;;4.95;1.80;;;;;;;20.72;51.45;99526.47;5110504;28;20023;-44
2022/10/03 11:09:59;;;;;;;2.80;1.65;;;;;;;20.85;52.61;99520.47;5112587;28;20032;-44
2022/10/03 11:12:24;;;;;;;4.38;2.10;;;;;;;20.77;54.06;99512.91;5112252;28;20034;-46
2022/10/03 11:15:27;;;;;;;2.55;2.20;;;;;;;20.75;54.92;99513.19;5112598;28;20036;-45
2022/10/03 11:18:26;;;;;;;3.33;1.90;;;;;;;20.54;55.96;99515.13;5112798;28;20407;-46
2022/10/03 11:21:35;;;;;;;3.10;1.80;;;;;;;20.70;54.90;99497.81;5112412;28;20075;-44
2022/10/03 11:24:22;;;;;;;3.30;2.08;;;;;;;21.04;54.58;99499.81;5112629;28;20020;-44
2022/10/03 11:27:29;;;;;;;4.03;2.22;;;;;;;20.73;56.22;99493.72;5112167;28;20110;-43
2022/10/03 11:30:03;;;;;;;2.72;2.03;;;;;;;20.81;54.97;99495.88;5112406;28;20369;-44
2022/10/03 11:33:06;;;;;;;4.65;2.17;;;;;;;20.63;55.77;99489.16;5111435;28;20108;-44
2022/10/03 11:35:56;;;;;;;2.95;2.22;;;;;;;21.04;54.83;99489.00;5108966;28;20578;-44
2022/10/03 11:38:28;;;;;;;3.08;2.13;;;;;;;20.86;55.56;99487.72;5110258;28;20019;-44
2022/10/03 11:41:00;;;;;;;5.07;2.20;;;;;;;20.81;54.76;99497.75;5110446;28;20219;-45
2022/10/03 11:43:47;;;;;;;3.00;2.17;;;;;;;20.74;54.51;99481.84;5110055;28;20027;-45
2022/10/03 11:46:46;;;;;;;4.10;2.17;;;;;;;20.54;56.72;99493.50;5109651;28;20035;-44
2022/10/03 11:49:45;;;;;;;4.68;2.30;;;;;;;20.23;56.59;99480.06;5095645;28;20669;-44
2022/10/03 11:52:29;;;;;;;3.75;2.00;;;;;;;20.19;55.80;99481.72;5111279;28;20039;-44
2022/10/03 11:55:04;;;;;;;3.10;2.10;;;;;;;19.98;56.23;99478.22;5101610;27;20020;-44
2022/10/03 11:57:35;;;;;;;2.65;2.20;;;;;;;20.21;55.18;99478.75;5111780;28;20457;-44
2022/10/03 12:00:09;;;;;;;3.38;2.40;;;;;;;20.37;55.60;99479.50;5104457;28;20081;-43
2022/10/03 12:02:43;;;;;;;3.72;2.30;;;;;;;20.56;54.50;99477.00;5091643;28;20444;-44
2022/10/03 12:05:26;;;;;;;3.33;2.17;;;;;;;20.84;53.78;99473.66;5091733;28;20511;-45
2022/10/03 12:11:27;;;;;;;3.67;2.30;;;;;;;20.75;54.04;99477.22;5099043;28;20046;-44
2022/10/03 12:14:23;;;;;;;2.45;2.10;;;;;;;20.71;53.92;99468.88;5113028;28;20032;-43
2022/10/03 12:16:48;;;;;;;5.65;2.28;;;;;;;20.94;53.02;99467.41;5113239;28;20032;-45
2022/10/03 12:19:23;;;;;;;4.70;2.63;;;;;;;21.43;51.67;99461.13;5112236;28;20506;-43
2022/10/03 12:21:52;;;;;;;4.15;2.45;;;;;;;21.31;51.52;99454.50;5110937;28;20060;-43
2022/10/03 12:24:27;;;;;;;7.65;3.13;;;;;;;21.53;51.62;99462.19;5107298;28;20027;-43
2022/10/03 12:27:22;;;;;;;10.25;3.47;;;;;;;22.19;50.19;99468.91;5111555;28;20132;-42
2022/10/03 12:30:01;;;;;;;5.90;2.60;;;;;;;22.67;48.21;99457.28;5111579;28;20658;-44
2022/10/03 12:32:48;;;;;;;4.82;2.42;;;;;;;22.36;47.92;99447.59;5111720;28;20030;-44
2022/10/03 12:35:19;;;;;;;8.15;2.22;;;;;;;22.15;46.80;99457.84;5111701;28;20120;-43
2022/10/03 12:38:11;;;;;;;3.47;2.30;;;;;;;22.35;46.28;99451.44;5111607;28;20373;-42
2022/10/03 12:40:52;;;;;;;7.15;2.47;;;;;;;22.36;46.08;99444.88;5110983;28;20385;-43
2022/10/03 12:43:27;;;;;;;6.18;2.60;;;;;;;22.35;46.14;99456.00;5111631;28;20062;-42
2022/10/03 12:46:10;;;;;;;4.80;1.98;;;;;;;22.22;44.24;99460.22;5111135;28;20385;-42
2022/10/03 12:48:49;;;;;;;5.35;1.77;;;;;;;22.26;44.09;99455.84;5109622;28;20031;-42
2022/10/03 12:51:34;;;;;;;4.20;2.30;;;;;;;21.86;44.31;99449.72;5111402;28;20101;-41
2022/10/03 12:54:02;;;;;;;3.83;2.03;;;;;;;22.09;44.04;99456.28;5111262;28;20027;-44
2022/10/03 12:56:46;;;;;;;7.18;1.90;;;;;;;22.15;43.33;99449.69;5111073;28;20050;-36
2022/10/03 12:59:17;;;;;;;3.88;1.70;;;;;;;21.89;43.77;99441.00;5110778;28;20038;-36
2022/10/03 13:01:52;;;;;;;2.05;1.60;;;;;;;21.94;44.17;99451.00;5111183;28;20055;-36
2022/10/03 13:05:06;;;;;;;3.40;1.90;;;;;;;22.30;43.01;99456.91;5111150;28;20034;-36